• Join FlightAware (Why Join?)
  • Login
  • US Flag 
09:45AM EDT


 

Airport Tracker/Info


-or-


 

Live Flight TrackerFlight Track Log ✈ UPS106 ✈ 25-Oct-2013 ✈ KBDL - KEWR

Flight Track Log - Related Links

Times and Time Zones

All times are in EDT time to prevent confusion due to time zone crossing. See the UPS106 flight status page for this flight to view local times or setup timezone preferences in your user account.

Time Position Orientation Groundspeed Altitude Reporting Facility
EDT Latitude Longitude Course Direction KTS MPH feet Rate Location/Type
07:58PM 41.9640 -72.8090 262° West 251 289 7,700  Level FlightAware
07:59PM 41.9600 -72.8470 262° West 260 299 9,500 3,420 Climbing FlightAware
07:59PM 41.9520 -72.9220 262° West 325 374 11,400 3,360 Climbing FlightAware
08:00PM 41.9450 -72.9850 262° West 345 397 13,600 1,800 Climbing FlightAware
08:01PM 41.9330 -73.0900 261° West 344 396 13,800 120 Climbing FlightAware
08:01PM 41.9230 -73.1780 261° West 339 390 13,800  Level FlightAware
08:02PM 41.8960 -73.2830 251° West 356 410 13,800  Level FlightAware
08:03PM 41.8710 -73.3330 236° Southwest 358 412 13,800  Level FlightAware
08:03PM 41.8430 -73.3890 236° Southwest 358 412 13,800  Level FlightAware
08:04PM 41.8090 -73.4530 235° Southwest 359 413 13,800 -180 Level FlightAware
08:04PM 41.7650 -73.5380 235° Southwest 356 410 13,600 -420 Descending FlightAware
08:05PM 41.7350 -73.5970 236° Southwest 358 412 13,300 -540 Descending FlightAware
08:06PM 41.6810 -73.7000 235° Southwest 355 409 12,800 -540 Descending FlightAware
08:06PM 41.6530 -73.7550 236° Southwest 356 410 12,600 -480 Descending FlightAware
08:07PM 41.6210 -73.8160 235° Southwest 351 404 12,300 -540 Descending FlightAware
08:08PM 41.5900 -73.8740 234° Southwest 351 404 12,000 -540 Descending FlightAware
08:08PM 41.5430 -73.9640 235° Southwest 350 403 11,600 -840 Descending FlightAware
08:09PM 41.5030 -74.0410 235° Southwest 285 328 10,700 -1,680 Descending FlightAware
08:10PM 41.4820 -74.0820 236° Southwest 280 322 9,500 -2,040 Descending FlightAware
08:10PM 41.4610 -74.1200 234° Southwest 266 306 8,800 -1,560 Descending FlightAware
08:11PM 41.4460 -74.1480 234° Southwest 264 304 8,200 -1,620 Descending FlightAware
08:11PM 41.4250 -74.1890 236° Southwest 263 303 7,400 -1,020 Descending FlightAware
08:12PM 41.4050 -74.2260 234° Southwest 263 303 7,200 -540 Descending FlightAware
08:12PM 41.3840 -74.2670 236° Southwest 264 304 6,900 -480 Descending FlightAware
08:13PM 41.3630 -74.3050 234° Southwest 261 300 6,800 -120 Descending FlightAware
08:13PM 41.3470 -74.3360 235° Southwest 263 303 6,800  Level FlightAware
08:13PM 41.3320 -74.3640 235° Southwest 265 305 6,800  Level FlightAware
08:14PM 41.3180 -74.3900 234° Southwest 266 306 6,800  Level FlightAware
08:14PM 41.2930 -74.4350 234° Southwest 268 308 6,800  Level FlightAware
08:15PM 41.2660 -74.4540 208° Southwest 280 322 6,800  Level FlightAware
08:15PM 41.2310 -74.4690 198° South 283 326 6,800 -240 Level FlightAware
08:16PM 41.1960 -74.4840 198° South 278 320 6,600 -720 Descending FlightAware
08:16PM 41.1690 -74.4950 197° South 275 316 6,200 -1,080 Descending FlightAware
08:16PM 41.1320 -74.5100 197° South 273 314 5,700 -1,140 Descending FlightAware
08:17PM 41.0970 -74.5253 198° South 272 313 5,100 -1,020 Descending FlightAware ADS-B
08:17PM 41.0689 -74.5374 198° South 270 311 4,800 -240 Descending FlightAware ADS-B
08:18PM 40.9930 -74.5490 187° South 276 318 4,800  Level FlightAware
08:19PM 40.9560 -74.5520 184° South 276 318 4,800  Level FlightAware
08:19PM 40.9360 -74.5530 182° South 275 316 4,800  Level FlightAware
08:19PM 40.9150 -74.5540 182° South 276 318 4,800  Level FlightAware
08:20PM 40.8800 -74.5560 182° South 275 316 4,800 -120 Level FlightAware
08:20PM 40.8390 -74.5597 184° South 250 288 4,700  Descending FlightAware ADS-B
08:21PM 40.8212 -74.5641 191° South 235 270 4,800 60 Climbing FlightAware ADS-B
08:22PM 40.7561 -74.5725 186° South 241 277 4,800  Level FlightAware ADS-B
08:22PM 40.6960 -74.5621 173° South 238 274 4,800  Level FlightAware ADS-B
08:23PM 40.6420 -74.5530 173° South 240 276 4,800  Level FlightAware
08:24PM 40.6110 -74.5480 173° South 239 275 4,800  Level FlightAware
08:24PM 40.5870 -74.5440 173° South 237 273 4,800  Level FlightAware
08:25PM 40.5640 -74.5410 174° South 239 275 4,800  Level FlightAware
08:25PM 40.5290 -74.5340 171° South 240 276 4,800  Level FlightAware
08:26PM 40.4980 -74.5080 147° Southeast 242 278 4,800 -300 Level FlightAware
08:26PM 40.4730 -74.4850 145° Southeast 237 273 4,500 -780 Descending FlightAware
08:26PM 40.4550 -74.4690 146° Southeast 236 272 4,200 -1,080 Descending FlightAware
08:27PM 40.4350 -74.4390 131° Southeast 237 273 3,700 -960 Descending FlightAware
08:27PM 40.4280 -74.4190 115° Southeast 235 270 3,500 -780 Descending FlightAware
08:28PM 40.4170 -74.3870 114° Southeast 235 270 3,200 -600 Descending FlightAware
08:28PM 40.4188 -74.3638 84° East 236 272 3,100 -300 Descending FlightAware ADS-B
08:28PM 40.4200 -74.3570 77° East 221 254 3,100 -540 Level FlightAware ADS-B
08:28PM 40.4222 -74.3488 71° East 215 247 3,000 -720 Descending FlightAware ADS-B
08:28PM 40.4274 -74.3389 55° Northeast 212 244 2,900 -480 Descending FlightAware ADS-B
08:28PM 40.4301 -74.3359 40° Northeast 199 229 2,900 -480 Level FlightAware ADS-B
08:29PM 40.4453 -74.3220 35° Northeast 187 215 2,700 -120 Descending FlightAware ADS-B
08:29PM 40.4710 -74.3047 27° Northeast 185 213 2,800 60 Climbing FlightAware ADS-B
08:30PM 40.4907 -74.2924 25° Northeast 182 209 2,800  Level FlightAware ADS-B
08:30PM 40.5166 -74.2762 25° Northeast 182 209 2,800  Level FlightAware ADS-B
08:30PM 40.5284 -74.2689 25° Northeast 183 211 2,800  Level FlightAware ADS-B
08:31PM 40.5405 -74.2610 26° Northeast 183 211 2,800  Level FlightAware ADS-B
08:31PM 40.5462 -74.2574 26° Northeast 183 211 2,800 -840 Level FlightAware ADS-B
08:31PM 40.5578 -74.2501 26° Northeast 187 215 2,500 -1,020 Descending FlightAware ADS-B
08:31PM 40.5699 -74.2425 26° Northeast 188 216 2,300 -1,020 Descending FlightAware ADS-B
08:32PM 40.5824 -74.2346 26° Northeast 191 220 2,000 -1,140 Descending FlightAware ADS-B
08:32PM 40.5956 -74.2261 26° Northeast 189 217 1,700 -1,020 Descending FlightAware ADS-B
08:32PM 40.6062 -74.2194 26° Northeast 175 201 1,500 -1,080 Descending FlightAware ADS-B
08:32PM 40.6169 -74.2127 25° Northeast 162 186 1,200 -1,020 Descending FlightAware ADS-B
08:33PM 40.6265 -74.2066 26° Northeast 147 169 1,000 -840 Descending FlightAware ADS-B
08:33PM 40.6341 -74.2017 26° Northeast 131 151 800 -660 Descending FlightAware ADS-B
08:33PM 40.6421 -74.1967 25° Northeast 123 142 700 -600 Descending FlightAware ADS-B
08:33PM 40.6506 -74.1913 26° Northeast 123 142 500 -780 Descending FlightAware ADS-B
08:34PM 40.6591 -74.1860 25° Northeast 124 143 300 -660 Descending FlightAware ADS-B
08:34PM 40.6651 -74.1821 26° Northeast 126 145 200 -540 Descending FlightAware ADS-B
08:34PM 40.6800 -74.1730 25° Northeast 126 145 -420 Descending FlightAware